createdAt,value
2023-04-18T00:01:42.134Z,67.24
2023-04-18T00:04:27.937Z,66.95
2023-04-18T00:07:17.689Z,66.99
2023-04-18T00:10:04.927Z,66.61
2023-04-18T00:12:50.363Z,66.93
2023-04-18T00:15:35.718Z,66.82
2023-04-18T00:18:21.349Z,66.79
2023-04-18T00:21:08.770Z,66.66
2023-04-18T00:23:54.139Z,66.74
2023-04-18T00:26:39.380Z,66.36
2023-04-18T00:29:24.855Z,66.49
2023-04-18T00:32:12.022Z,66.22
2023-04-18T00:34:57.379Z,65.86
2023-04-18T00:37:42.775Z,65.78
2023-04-18T00:40:28.021Z,65.77
2023-04-18T00:43:14.765Z,65.40
2023-04-18T00:46:01.595Z,65.43
2023-04-18T00:48:47.916Z,65.93
2023-04-18T00:51:35.102Z,65.93
2023-04-18T00:54:21.222Z,65.88
2023-04-18T00:57:07.441Z,65.67
2023-04-18T00:59:53.197Z,66.08
2023-04-18T01:02:39.907Z,65.19
2023-04-18T01:05:26.967Z,65.08
2023-04-18T01:08:12.880Z,65.20
2023-04-18T01:10:58.833Z,65.33
2023-04-18T01:13:58.896Z,65.21
2023-04-18T01:16:47.212Z,65.69
2023-04-18T01:19:33.032Z,65.95
2023-04-18T01:22:19.866Z,65.98
2023-04-18T01:25:09.161Z,66.08
2023-04-18T01:27:55.256Z,65.83
2023-04-18T01:30:40.813Z,65.76
2023-04-18T01:33:26.457Z,65.44
2023-04-18T01:36:11.697Z,65.69
2023-04-18T01:38:57.740Z,65.59
2023-04-18T01:41:43.559Z,65.90
2023-04-18T01:44:28.800Z,65.96
2023-04-18T01:47:14.731Z,66.64
2023-04-18T01:50:00.021Z,67.13
2023-04-18T01:52:47.402Z,67.19
2023-04-18T01:55:35.148Z,67.29
2023-04-18T01:58:23.799Z,67.38
2023-04-18T02:01:09.880Z,66.93
2023-04-18T02:03:57.061Z,67.20
2023-04-18T02:06:42.719Z,67.25
2023-04-18T02:09:28.959Z,67.11
2023-04-18T02:12:14.594Z,67.50
2023-04-18T02:14:59.916Z,67.54
2023-04-18T02:17:45.891Z,68.09
2023-04-18T02:20:34.920Z,68.31
2023-04-18T02:23:20.747Z,68.30
2023-04-18T02:26:06.464Z,68.80
2023-04-18T02:28:52.298Z,68.96
2023-04-18T02:31:40.565Z,69.00
2023-04-18T02:34:26.424Z,69.19
2023-04-18T02:37:12.021Z,69.30
2023-04-18T02:39:58.943Z,69.16
2023-04-18T02:42:48.391Z,68.98
2023-04-18T02:45:33.891Z,68.99
2023-04-18T02:48:19.289Z,68.63
2023-04-18T02:51:06.443Z,68.45
2023-04-18T02:53:55.530Z,68.32
2023-04-18T02:56:44.817Z,68.51
2023-04-18T02:59:41.127Z,68.74
2023-04-18T03:02:50.868Z,68.47
2023-04-18T03:05:55.281Z,67.89
2023-04-18T03:08:41.308Z,67.43
2023-04-18T03:11:27.704Z,67.92
2023-04-18T03:14:14.524Z,68.29
2023-04-18T03:17:08.658Z,68.76
2023-04-18T03:19:58.540Z,68.90
2023-04-18T03:22:44.062Z,69.23
2023-04-18T03:25:31.136Z,69.90
2023-04-18T03:28:17.586Z,69.57
2023-04-18T03:31:02.952Z,69.91
2023-04-18T03:33:51.798Z,70.15
2023-04-18T03:36:39.148Z,70.06
2023-04-18T03:39:25.242Z,69.69
2023-04-18T03:42:12.148Z,69.94
2023-04-18T03:44:59.611Z,69.98
2023-04-18T03:47:46.138Z,69.85
2023-04-18T03:50:31.773Z,69.90
2023-04-18T03:53:17.214Z,69.67
2023-04-18T03:56:02.594Z,70.19
2023-04-18T03:59:04.214Z,70.12
2023-04-18T04:01:49.579Z,70.25
2023-04-18T04:04:37.153Z,70.62
2023-04-18T04:07:22.385Z,70.83
2023-04-18T04:10:09.084Z,71.34
2023-04-18T04:12:54.904Z,71.48
2023-04-18T04:15:40.959Z,71.20
2023-04-18T04:18:31.609Z,71.23
2023-04-18T04:21:21.206Z,70.76
2023-04-18T04:24:10.039Z,71.19
2023-04-18T04:27:00.430Z,71.02
2023-04-18T04:29:46.295Z,71.25
2023-04-18T04:32:33.112Z,71.57
2023-04-18T04:35:18.897Z,71.88
2023-04-18T04:38:04.250Z,72.06
2023-04-18T04:40:58.216Z,72.53
2023-04-18T04:43:43.519Z,72.98
2023-04-18T04:46:32.569Z,73.64
2023-04-18T04:49:18.900Z,74.32
2023-04-18T04:52:05.075Z,75.01
2023-04-18T04:54:51.779Z,73.66
2023-04-18T04:57:39.581Z,74.83
2023-04-18T05:00:38.656Z,76.28
2023-04-18T05:03:24.304Z,76.04
2023-04-18T05:06:10.350Z,75.77
2023-04-18T05:08:57.515Z,75.31
2023-04-18T05:11:43.222Z,75.10
2023-04-18T05:14:28.523Z,75.17
2023-04-18T05:17:14.021Z,75.62
2023-04-18T05:19:59.499Z,75.39
2023-04-18T05:22:44.938Z,75.34
2023-04-18T05:25:31.686Z,75.48
2023-04-18T05:28:18.816Z,75.52
2023-04-18T05:31:04.924Z,75.66
2023-04-18T05:33:50.232Z,75.12
2023-04-18T05:36:35.888Z,75.13
2023-04-18T05:39:21.558Z,74.52
2023-04-18T05:42:06.977Z,73.88
2023-04-18T05:44:52.212Z,73.96
2023-04-18T05:47:37.879Z,71.80
2023-04-18T05:50:23.312Z,70.63
2023-04-18T05:53:08.796Z,69.30
2023-04-18T05:55:55.161Z,69.87
2023-04-18T05:58:40.703Z,66.46
2023-04-18T06:01:26.104Z,67.30
2023-04-18T06:04:11.900Z,65.71
2023-04-18T06:06:57.406Z,65.84
2023-04-18T06:09:42.798Z,65.21
2023-04-18T06:12:28.176Z,65.01
2023-04-18T06:15:13.694Z,65.35
2023-04-18T06:17:59.158Z,65.31
2023-04-18T06:20:45.347Z,65.43
2023-04-18T06:23:31.038Z,64.79
2023-04-18T06:26:16.321Z,65.43
2023-04-18T06:29:01.784Z,66.84
2023-04-18T06:31:48.446Z,67.63
2023-04-18T06:34:34.173Z,67.60
2023-04-18T06:37:19.706Z,68.07
2023-04-18T06:40:05.734Z,66.85
2023-04-18T06:42:51.609Z,66.00
2023-04-18T06:45:37.128Z,64.30
2023-04-18T06:48:22.780Z,62.97
2023-04-18T06:51:08.464Z,63.49
2023-04-18T06:53:53.801Z,62.91
2023-04-18T06:56:39.182Z,61.42
2023-04-18T06:59:25.049Z,63.35
2023-04-18T07:02:11.330Z,63.26
2023-04-18T07:04:57.471Z,62.32
2023-04-18T07:07:42.866Z,62.22
2023-04-18T07:10:28.327Z,62.36
2023-04-18T07:13:13.732Z,62.47
2023-04-18T07:15:59.438Z,63.03
2023-04-18T07:18:46.873Z,61.40
2023-04-18T07:21:33.759Z,61.98
2023-04-18T07:24:19.074Z,60.12
2023-04-18T07:27:04.918Z,59.88
2023-04-18T07:29:50.616Z,60.27
2023-04-18T07:32:36.163Z,57.64
2023-04-18T07:35:21.863Z,56.31
2023-04-18T07:38:07.298Z,55.67
2023-04-18T07:40:57.345Z,56.71
2023-04-18T07:43:44.838Z,58.37
2023-04-18T07:46:32.428Z,58.88
2023-04-18T07:49:17.831Z,57.72
2023-04-18T07:52:03.734Z,57.48
2023-04-18T07:54:49.075Z,56.92
2023-04-18T07:57:34.612Z,55.95
2023-04-18T08:00:20.486Z,56.96
2023-04-18T08:03:07.704Z,57.93
2023-04-18T08:05:53.642Z,56.56
2023-04-18T08:08:39.152Z,55.44
2023-04-18T08:11:25.807Z,53.34
2023-04-18T08:14:11.601Z,52.99
2023-04-18T08:16:57.268Z,53.51
2023-04-18T08:19:44.469Z,50.74
2023-04-18T08:22:30.066Z,51.84
2023-04-18T08:25:16.461Z,53.23
2023-04-18T08:28:02.039Z,51.90
2023-04-18T08:30:49.175Z,50.52
2023-04-18T08:33:34.649Z,52.11
2023-04-18T08:36:21.230Z,51.67
2023-04-18T08:39:07.923Z,53.81
2023-04-18T08:42:00.650Z,50.94
2023-04-18T08:44:47.268Z,52.14
2023-04-18T08:47:35.216Z,52.50
2023-04-18T08:50:21.485Z,52.04
2023-04-18T08:53:07.441Z,51.06
2023-04-18T08:55:54.419Z,50.95
2023-04-18T08:58:40.511Z,50.07
2023-04-18T09:01:57.155Z,50.16
2023-04-18T09:04:45.474Z,49.29
2023-04-18T09:07:31.571Z,52.31
2023-04-18T09:10:32.958Z,50.47
2023-04-18T09:13:39.142Z,49.58
2023-04-18T09:16:27.845Z,49.50
2023-04-18T09:19:18.119Z,49.02
2023-04-18T09:22:15.003Z,47.94
2023-04-18T09:25:00.543Z,48.98
2023-04-18T09:27:46.064Z,45.12
2023-04-18T09:30:34.946Z,47.01
2023-04-18T09:33:28.464Z,46.74
2023-04-18T09:36:18.750Z,46.69
2023-04-18T09:39:05.326Z,47.77
2023-04-18T09:42:01.358Z,44.34
2023-04-18T09:45:04.607Z,43.13
2023-04-18T09:47:50.902Z,41.03
2023-04-18T09:50:38.984Z,41.59
2023-04-18T09:53:25.348Z,33.68
2023-04-18T09:56:29.670Z,33.10
2023-04-18T09:59:33.570Z,34.13
2023-04-18T10:02:22.652Z,32.81
2023-04-18T10:05:09.530Z,32.71
2023-04-18T10:07:56.217Z,33.41
2023-04-18T10:10:41.943Z,31.92
2023-04-18T10:13:28.818Z,32.48
2023-04-18T10:16:14.828Z,33.24
2023-04-18T10:19:23.334Z,33.70
2023-04-18T10:22:08.867Z,34.04
2023-04-18T10:24:54.557Z,35.18
2023-04-18T10:27:49.490Z,33.20
2023-04-18T10:30:40.208Z,35.59
2023-04-18T10:34:00.792Z,35.90
2023-04-18T10:37:06.391Z,36.07
2023-04-18T10:40:01.961Z,35.99
2023-04-18T10:42:47.486Z,35.53
2023-04-18T10:45:36.452Z,36.14
2023-04-18T10:48:27.671Z,36.05
2023-04-18T10:51:23.157Z,36.39
2023-04-18T10:54:22.063Z,36.93
2023-04-18T10:57:09.082Z,37.30
2023-04-18T10:59:55.165Z,37.58
2023-04-18T11:02:50.039Z,37.81
2023-04-18T11:05:36.185Z,39.46
2023-04-18T11:08:24.074Z,39.63
2023-04-18T11:11:11.367Z,39.00
2023-04-18T11:13:58.465Z,38.09
2023-04-18T11:16:44.107Z,38.53
2023-04-18T11:19:29.859Z,38.70
2023-04-18T11:22:16.292Z,38.21
2023-04-18T11:25:08.071Z,37.61
2023-04-18T11:27:55.703Z,36.80
2023-04-18T11:30:42.664Z,37.69
2023-04-18T11:33:29.499Z,36.36
2023-04-18T11:36:15.282Z,37.02
2023-04-18T11:39:01.191Z,38.15
2023-04-18T11:41:50.789Z,36.82
2023-04-18T11:44:39.827Z,37.79
2023-04-18T11:47:31.761Z,38.46
2023-04-18T11:50:17.347Z,36.91
2023-04-18T11:53:02.795Z,36.68
2023-04-18T11:55:55.892Z,37.35
2023-04-18T11:58:42.921Z,37.96
2023-04-18T12:01:28.654Z,36.78
2023-04-18T12:04:14.449Z,37.63
2023-04-18T12:06:59.996Z,37.15
2023-04-18T12:09:45.829Z,37.67
2023-04-18T12:12:31.331Z,38.26
2023-04-18T12:15:21.089Z,37.86
2023-04-18T12:18:09.978Z,37.14
2023-04-18T12:20:55.827Z,37.96
2023-04-18T12:23:46.358Z,37.92
2023-04-18T12:26:32.848Z,37.55
2023-04-18T12:29:19.052Z,36.84
2023-04-18T12:32:09.401Z,36.39
2023-04-18T12:34:55.903Z,35.48
2023-04-18T12:37:41.769Z,35.72
2023-04-18T12:40:28.740Z,35.01
2023-04-18T12:43:14.308Z,34.00
2023-04-18T12:46:00.038Z,35.13
2023-04-18T12:48:45.890Z,36.04
2023-04-18T12:51:31.753Z,34.92
2023-04-18T12:54:17.066Z,35.02
2023-04-18T12:57:03.482Z,36.09
2023-04-18T12:59:49.368Z,35.47
2023-04-18T13:02:37.290Z,36.05
2023-04-18T13:05:24.670Z,36.73
2023-04-18T13:08:17.237Z,37.03
2023-04-18T13:11:03.524Z,36.87
2023-04-18T13:13:48.889Z,37.26
2023-04-18T13:16:34.936Z,37.46
2023-04-18T13:19:20.344Z,38.08
2023-04-18T13:22:05.906Z,37.82
2023-04-18T13:24:51.515Z,38.57
2023-04-18T13:27:41.418Z,37.54
2023-04-18T13:30:27.682Z,37.50
2023-04-18T13:33:13.642Z,38.53
2023-04-18T13:35:59.079Z,38.51
2023-04-18T13:38:44.430Z,38.42
2023-04-18T13:41:30.850Z,39.21
2023-04-18T13:44:16.644Z,39.45
2023-04-18T13:47:08.832Z,39.35
2023-04-18T13:49:57.781Z,38.36
2023-04-18T13:52:43.767Z,38.21
2023-04-18T13:55:29.290Z,38.53
2023-04-18T13:58:37.242Z,39.17
2023-04-18T14:01:23.133Z,39.42
2023-04-18T14:04:08.991Z,39.00
2023-04-18T14:06:55.195Z,38.56
2023-04-18T14:09:40.909Z,39.79
2023-04-18T14:12:26.396Z,38.98
2023-04-18T14:15:15.289Z,39.41
2023-04-18T14:18:01.100Z,39.75
2023-04-18T14:20:48.511Z,40.61
2023-04-18T14:23:35.543Z,40.16
2023-04-18T14:26:21.441Z,41.02
2023-04-18T14:29:06.869Z,41.17
2023-04-18T14:31:52.876Z,41.19
2023-04-18T14:34:38.921Z,41.14
2023-04-18T14:37:24.338Z,41.56
2023-04-18T14:40:11.335Z,41.39
2023-04-18T14:42:57.000Z,41.55
2023-04-18T14:45:42.483Z,41.73
2023-04-18T14:48:28.314Z,42.05
2023-04-18T14:51:16.196Z,41.97
2023-04-18T14:54:02.214Z,41.96
2023-04-18T14:56:48.295Z,42.18
2023-04-18T14:59:43.330Z,41.77
2023-04-18T15:02:57.554Z,41.82
2023-04-18T15:05:46.822Z,41.90
2023-04-18T15:08:33.088Z,42.17
2023-04-18T15:11:18.757Z,42.12
2023-04-18T15:14:04.805Z,41.85
2023-04-18T15:17:13.814Z,42.85
2023-04-18T15:20:47.810Z,43.14
2023-04-18T15:23:44.153Z,43.42
2023-04-18T15:26:32.331Z,44.03
2023-04-18T15:29:18.859Z,44.38
2023-04-18T15:32:06.565Z,44.71
2023-04-18T15:34:52.048Z,44.44
2023-04-18T15:37:37.957Z,44.74
2023-04-18T15:40:23.985Z,44.90
2023-04-18T15:43:09.896Z,44.59
2023-04-18T15:45:55.325Z,45.35
2023-04-18T15:48:42.024Z,45.32
2023-04-18T15:51:31.089Z,45.58
2023-04-18T15:54:16.978Z,45.45
2023-04-18T15:57:03.169Z,45.34
2023-04-18T15:59:48.883Z,45.45
2023-04-18T16:02:34.427Z,45.10
2023-04-18T16:05:20.351Z,45.41
2023-04-18T16:08:06.978Z,46.24
2023-04-18T16:10:52.941Z,45.74
2023-04-18T16:13:54.141Z,46.09
2023-04-18T16:16:44.690Z,45.57
2023-04-18T16:19:33.333Z,45.02
2023-04-18T16:22:20.337Z,44.51
2023-04-18T16:25:12.044Z,44.32
2023-04-18T16:28:18.983Z,44.49
2023-04-18T16:31:14.641Z,44.40
2023-04-18T16:34:32.456Z,45.18
2023-04-18T16:37:47.229Z,45.63
2023-04-18T16:40:35.139Z,45.30
2023-04-18T16:43:23.077Z,44.76
2023-04-18T16:46:12.201Z,44.60
2023-04-18T16:49:45.611Z,44.59
2023-04-18T16:52:35.275Z,44.73
2023-04-18T16:55:25.983Z,45.21
2023-04-18T16:58:13.605Z,44.91
2023-04-18T17:01:01.252Z,45.30
2023-04-18T17:03:46.926Z,45.18
2023-04-18T17:06:32.896Z,45.44
2023-04-18T17:09:19.838Z,45.58
2023-04-18T17:12:05.855Z,45.39
2023-04-18T17:14:51.615Z,45.16
2023-04-18T17:17:37.493Z,45.16
2023-04-18T17:20:23.807Z,45.66
2023-04-18T17:23:09.382Z,45.61
2023-04-18T17:25:54.718Z,45.52
2023-04-18T17:28:40.370Z,45.69
2023-04-18T17:31:26.216Z,46.32
2023-04-18T17:34:12.042Z,47.24
2023-04-18T17:36:57.796Z,47.60
2023-04-18T17:39:43.862Z,48.01
2023-04-18T17:42:30.163Z,48.02
2023-04-18T17:45:16.176Z,47.92
2023-04-18T17:48:03.082Z,48.10
2023-04-18T17:50:48.958Z,47.78
2023-04-18T17:53:34.859Z,47.56
2023-04-18T17:56:22.251Z,47.83
2023-04-18T17:59:08.041Z,48.08
2023-04-18T18:01:53.938Z,47.94
2023-04-18T18:04:39.881Z,47.35
2023-04-18T18:07:39.081Z,47.84
2023-04-18T18:10:36.047Z,48.20
2023-04-18T18:13:25.858Z,48.59
2023-04-18T18:16:24.336Z,49.00
2023-04-18T18:19:10.242Z,49.32
2023-04-18T18:21:56.392Z,49.41
2023-04-18T18:24:42.616Z,49.41
2023-04-18T18:27:28.396Z,49.75
2023-04-18T18:30:14.028Z,49.94
2023-04-18T18:33:01.495Z,49.76
2023-04-18T18:36:08.201Z,49.82
2023-04-18T18:39:16.464Z,50.11
2023-04-18T18:42:02.776Z,50.50
2023-04-18T18:44:48.400Z,50.39
2023-04-18T18:47:37.482Z,50.52
2023-04-18T18:50:25.616Z,51.61
2023-04-18T18:53:16.875Z,50.77
2023-04-18T18:56:04.482Z,50.54
2023-04-18T18:58:50.868Z,51.19
2023-04-18T19:01:38.944Z,51.90
2023-04-18T19:04:26.601Z,51.99
2023-04-18T19:07:12.023Z,51.66
2023-04-18T19:10:00.604Z,51.66
2023-04-18T19:12:46.203Z,51.60
2023-04-18T19:15:31.487Z,52.00
2023-04-18T19:18:19.774Z,51.87
2023-04-18T19:21:05.786Z,51.82
2023-04-18T19:23:54.887Z,51.87
2023-04-18T19:26:40.977Z,52.13
2023-04-18T19:29:27.153Z,52.43
2023-04-18T19:32:13.109Z,52.95
2023-04-18T19:34:59.685Z,53.51
2023-04-18T19:37:48.948Z,54.35
2023-04-18T19:40:34.423Z,54.53
2023-04-18T19:43:20.022Z,55.02
2023-04-18T19:46:05.928Z,55.31
2023-04-18T19:48:51.903Z,55.63
2023-04-18T19:51:47.901Z,55.96
2023-04-18T19:54:33.569Z,56.21
2023-04-18T19:57:19.113Z,56.34
2023-04-18T20:00:17.516Z,56.63
2023-04-18T20:03:07.750Z,56.93
2023-04-18T20:05:58.077Z,57.03
2023-04-18T20:08:52.780Z,57.12
2023-04-18T20:11:43.594Z,57.03
2023-04-18T20:14:32.839Z,57.14
2023-04-18T20:17:19.051Z,57.02
2023-04-18T20:20:08.257Z,56.96
2023-04-18T20:22:54.413Z,57.01
2023-04-18T20:25:40.414Z,57.37
2023-04-18T20:28:26.218Z,57.63
2023-04-18T20:31:12.692Z,58.66
2023-04-18T20:33:58.419Z,59.25
2023-04-18T20:36:44.778Z,59.79
2023-04-18T20:39:30.773Z,59.88
2023-04-18T20:42:16.505Z,60.22
2023-04-18T20:45:03.093Z,60.26
2023-04-18T20:47:48.530Z,60.45
2023-04-18T20:50:34.541Z,60.61
2023-04-18T20:53:21.775Z,60.68
2023-04-18T20:56:07.485Z,60.40
2023-04-18T20:58:52.855Z,61.17
2023-04-18T21:01:38.780Z,60.98
2023-04-18T21:04:25.341Z,61.21
2023-04-18T21:07:11.240Z,61.46
2023-04-18T21:09:56.639Z,61.77
2023-04-18T21:12:42.380Z,62.03
2023-04-18T21:15:27.931Z,61.96
2023-04-18T21:18:15.746Z,62.33
2023-04-18T21:21:01.039Z,62.16
2023-04-18T21:23:46.844Z,62.71
2023-04-18T21:26:32.182Z,63.02
2023-04-18T21:29:17.713Z,62.93
2023-04-18T21:32:03.141Z,63.23
2023-04-18T21:34:48.980Z,63.61
2023-04-18T21:37:34.474Z,63.47
2023-04-18T21:40:19.991Z,64.08
2023-04-18T21:43:05.781Z,64.04
2023-04-18T21:45:51.423Z,64.74
2023-04-18T21:48:37.925Z,64.68
2023-04-18T21:51:23.894Z,64.87
2023-04-18T21:54:09.289Z,64.67
2023-04-18T21:56:54.655Z,64.97
2023-04-18T21:59:40.147Z,65.44
2023-04-18T22:02:26.964Z,65.12
2023-04-18T22:05:12.881Z,65.46
2023-04-18T22:07:58.868Z,65.47
2023-04-18T22:10:45.144Z,65.24
2023-04-18T22:13:32.820Z,65.36
2023-04-18T22:16:18.526Z,65.25
2023-04-18T22:19:05.720Z,65.31
2023-04-18T22:21:51.541Z,65.73
2023-04-18T22:24:36.917Z,65.72
2023-04-18T22:27:22.365Z,66.09
2023-04-18T22:30:08.803Z,66.16
2023-04-18T22:32:54.572Z,66.22
2023-04-18T22:35:39.994Z,66.18
2023-04-18T22:38:25.536Z,66.04
2023-04-18T22:41:10.971Z,66.14
2023-04-18T22:43:56.362Z,66.09
2023-04-18T22:46:45.788Z,66.09
2023-04-18T22:49:31.299Z,66.05
2023-04-18T22:52:17.470Z,66.41
2023-04-18T22:55:03.484Z,66.53
2023-04-18T22:57:49.071Z,66.24
2023-04-18T23:00:34.871Z,65.99
2023-04-18T23:03:20.444Z,65.92
2023-04-18T23:06:07.710Z,65.88
2023-04-18T23:08:53.608Z,66.22
2023-04-18T23:11:39.025Z,65.96
2023-04-18T23:14:24.551Z,66.19
2023-04-18T23:17:10.365Z,65.82
2023-04-18T23:19:56.239Z,65.71
2023-04-18T23:22:41.888Z,65.95
2023-04-18T23:25:28.209Z,65.65
2023-04-18T23:28:13.824Z,66.21
2023-04-18T23:30:59.939Z,66.52
2023-04-18T23:33:46.698Z,66.72
2023-04-18T23:36:33.050Z,66.94
2023-04-18T23:39:18.794Z,66.58
2023-04-18T23:42:04.273Z,66.96
2023-04-18T23:44:49.721Z,66.66
2023-04-18T23:47:35.700Z,67.17
2023-04-18T23:50:21.021Z,67.11
2023-04-18T23:53:07.490Z,67.21
2023-04-18T23:55:53.701Z,67.06
2023-04-18T23:58:39.332Z,66.98
